Lemsford, United Kingdom
Current Conditions -  °F | °C
As of 7:20 PM on Tuesday 21 Oct 2014 (Local Time) from EGGW Reporting Station
Broken Clouds Broken Clouds  
Wind Chill:   Ceiling: 3600
Heat Index:   Visibility: 6mi
Dew Point:   Wind: 22mph
Humidity: 71%   Direction: 300°WNW
Pressure: 29.94"   Gusts: NA
Location:  51.8°N, 0.21°W
Report Text: EGGW 211820Z 30019KT 9999 BKN036 BKN046 08/03 Q1014
Loading
Personal Weather Stations






























Interactive Weather Map
Tropical Storm Tracking
New forecast layout! Learn more

10-Day Weather Forecast

Advertisements
Track Severe Weather on mobile